Time;durP1;ratioP1;P1;durP2;ratioP2;P2;SDS_P1;SDS_P2;PMS_P1;PMS_P2;Temp;Humidity;BMP_temperature;BMP_pressure;BME280_temperature;BME280_humidity;BME280_pressure;Samples;Min_cycle;Max_cycle;Signal;HPM_P1;HPM_P2
2022/05/13 00:00:39;;;;;;;3.45;2.00;;;11.30;99.90;;;;;;5010967;28;20049;-74
2022/05/13 00:03:05;;;;;;;2.92;2.08;;;11.40;99.90;;;;;;5015100;28;20022;-74
2022/05/13 00:05:31;;;;;;;5.72;2.35;;;11.40;99.90;;;;;;5013097;28;20052;-74
2022/05/13 00:07:56;;;;;;;6.50;2.42;;;11.40;99.90;;;;;;5014520;28;20050;-74
2022/05/13 00:10:24;;;;;;;5.20;2.53;;;11.40;99.90;;;;;;5020786;28;20088;-72
2022/05/13 00:12:51;;;;;;;4.13;2.15;;;11.50;99.90;;;;;;5015025;28;20049;-72
2022/05/13 00:15:19;;;;;;;3.70;1.90;;;11.50;99.90;;;;;;5014067;28;20103;-72
2022/05/13 00:17:46;;;;;;;5.10;2.55;;;11.60;99.90;;;;;;5013460;28;20514;-72
2022/05/13 00:20:12;;;;;;;6.55;2.42;;;11.60;99.90;;;;;;5013102;28;20069;-72
2022/05/13 00:22:53;;;;;;;5.07;2.65;;;11.60;99.90;;;;;;4998442;28;20459;-72
2022/05/13 00:25:25;;;;;;;5.90;2.70;;;11.70;99.90;;;;;;4997996;28;20430;-72
2022/05/13 00:27:53;;;;;;;5.97;2.25;;;11.70;99.90;;;;;;5012088;28;20092;-72
2022/05/13 00:30:19;;;;;;;5.22;2.28;;;11.70;99.90;;;;;;5011773;28;20041;-72
2022/05/13 00:32:44;;;;;;;4.93;2.63;;;11.80;99.90;;;;;;5012570;28;20056;-72
2022/05/13 00:35:11;;;;;;;6.47;2.60;;;11.80;99.90;;;;;;5011485;28;20705;-72
2022/05/13 00:37:36;;;;;;;5.45;2.50;;;11.90;99.90;;;;;;4998033;28;20091;-72
2022/05/13 00:40:03;;;;;;;5.35;2.20;;;11.90;99.90;;;;;;5012043;28;20033;-72
2022/05/13 00:42:29;;;;;;;5.25;2.53;;;11.90;99.90;;;;;;5014663;28;20455;-72
2022/05/13 00:44:57;;;;;;;7.53;2.65;;;11.90;99.90;;;;;;4993943;28;20160;-72
2022/05/13 00:47:22;;;;;;;4.13;2.38;;;12.00;99.90;;;;;;5010047;28;20049;-72
2022/05/13 00:49:48;;;;;;;5.13;2.90;;;12.00;99.90;;;;;;4994332;28;20045;-72
2022/05/13 00:52:14;;;;;;;7.13;2.70;;;12.00;99.90;;;;;;5002180;28;20045;-72
2022/05/13 00:54:42;;;;;;;7.80;2.88;;;12.00;99.90;;;;;;4996189;28;20046;-72
2022/05/13 00:57:11;;;;;;;6.10;2.47;;;12.00;99.90;;;;;;4997822;28;20041;-72
2022/05/13 00:59:39;;;;;;;5.40;2.45;;;12.00;99.90;;;;;;4996485;28;20044;-72
2022/05/13 01:02:05;;;;;;;6.22;2.55;;;12.00;99.90;;;;;;5014826;28;20041;-72
2022/05/13 01:04:33;;;;;;;5.38;2.38;;;12.00;99.90;;;;;;5025265;28;20053;-72
2022/05/13 01:07:04;;;;;;;5.43;2.70;;;12.00;99.90;;;;;;5011705;28;20077;-72
2022/05/13 01:09:35;;;;;;;8.30;2.45;;;12.00;99.90;;;;;;5013461;28;20054;-72
2022/05/13 01:12:07;;;;;;;6.78;2.35;;;12.00;99.90;;;;;;5009169;28;20053;-72
2022/05/13 01:14:39;;;;;;;6.70;2.33;;;12.00;99.90;;;;;;4994255;28;20486;-72
2022/05/13 01:20:14;;;;;;;5.55;2.40;;;12.10;99.90;;;;;;5022310;28;20586;-72
2022/05/13 01:22:44;;;;;;;6.05;2.20;;;12.00;99.90;;;;;;5010991;28;20088;-72
2022/05/13 01:25:14;;;;;;;5.85;2.22;;;12.00;99.90;;;;;;5030528;28;20033;-72
2022/05/13 01:27:42;;;;;;;6.32;2.35;;;12.00;99.90;;;;;;5011417;28;20041;-72
2022/05/13 01:30:09;;;;;;;6.47;2.53;;;12.10;99.90;;;;;;5011812;28;20459;-72
2022/05/13 01:32:35;;;;;;;9.95;2.65;;;12.10;99.90;;;;;;5001137;28;20104;-72
2022/05/13 01:35:00;;;;;;;9.13;2.53;;;12.20;99.90;;;;;;5008557;28;20128;-72
2022/05/13 01:37:26;;;;;;;5.18;2.30;;;12.20;99.90;;;;;;5014139;28;20050;-72
2022/05/13 01:39:52;;;;;;;9.98;2.95;;;12.10;99.90;;;;;;5010377;28;20038;-73
2022/05/13 01:42:18;;;;;;;8.68;2.65;;;12.20;99.90;;;;;;4983959;28;20459;-73
2022/05/13 01:44:43;;;;;;;3.88;2.70;;;12.20;99.90;;;;;;5014091;28;20083;-73
2022/05/13 01:47:09;;;;;;;6.40;2.63;;;12.20;99.90;;;;;;5012769;28;20045;-73
2022/05/13 01:49:34;;;;;;;10.98;3.25;;;12.20;99.90;;;;;;5011718;28;20202;-73
2022/05/13 01:52:00;;;;;;;5.72;2.58;;;12.20;99.90;;;;;;4993793;28;20704;-73
2022/05/13 01:54:25;;;;;;;5.53;2.40;;;12.20;99.90;;;;;;5000029;28;20045;-73
2022/05/13 01:56:51;;;;;;;6.03;2.70;;;12.20;99.90;;;;;;4997362;28;20041;-73
2022/05/13 01:59:16;;;;;;;6.45;2.50;;;12.20;99.90;;;;;;4992402;28;20146;-73
2022/05/13 02:01:42;;;;;;;8.15;2.83;;;12.20;99.90;;;;;;5011758;28;20065;-73
2022/05/13 02:04:07;;;;;;;7.47;2.72;;;12.10;99.90;;;;;;5011699;28;20045;-73
2022/05/13 02:06:33;;;;;;;7.68;2.80;;;12.10;99.90;;;;;;5012610;28;20042;-73
2022/05/13 02:08:59;;;;;;;7.15;3.03;;;12.10;99.90;;;;;;5046972;23;20097;-76
2022/05/13 02:11:27;;;;;;;6.32;2.55;;;12.20;99.90;;;;;;5028984;28;20048;-76
2022/05/13 02:13:54;;;;;;;5.40;2.40;;;12.20;99.90;;;;;;5048902;28;20048;-76
2022/05/13 02:16:20;;;;;;;5.68;2.90;;;12.10;99.90;;;;;;5047623;28;20041;-76
2022/05/13 02:18:46;;;;;;;8.18;2.90;;;12.20;99.90;;;;;;5047938;28;20565;-76
2022/05/13 02:21:13;;;;;;;6.38;2.55;;;12.10;99.90;;;;;;5049067;28;20047;-76
2022/05/13 02:23:39;;;;;;;6.93;2.47;;;12.10;99.90;;;;;;5047958;28;20086;-76
2022/05/13 02:26:08;;;;;;;6.82;2.50;;;12.10;99.90;;;;;;5048107;28;20041;-76
2022/05/13 02:28:34;;;;;;;6.07;2.88;;;12.10;99.90;;;;;;5048462;28;20064;-76
2022/05/13 02:31:00;;;;;;;6.78;2.50;;;12.10;99.90;;;;;;5042646;28;20040;-76
2022/05/13 02:33:27;;;;;;;4.72;2.30;;;12.10;99.90;;;;;;5045408;28;20047;-76
2022/05/13 02:35:53;;;;;;;6.85;2.72;;;12.10;99.90;;;;;;5047966;28;20029;-76
2022/05/13 02:38:18;;;;;;;9.35;3.35;;;12.20;99.90;;;;;;5049464;28;20098;-76
2022/05/13 02:43:30;;;;;;;7.25;2.67;;;12.10;99.90;;;;;;5035711;28;20055;-76
2022/05/13 02:45:56;;;;;;;6.63;2.78;;;12.10;99.90;;;;;;5029632;28;20291;-76
2022/05/13 02:48:22;;;;;;;7.20;3.33;;;12.10;99.90;;;;;;5044760;28;20553;-76
2022/05/13 02:50:47;;;;;;;4.65;2.65;;;12.10;99.90;;;;;;5046400;28;20063;-76
2022/05/13 02:53:13;;;;;;;6.38;2.90;;;12.00;99.90;;;;;;5046199;28;20086;-76
2022/05/13 02:55:39;;;;;;;4.57;2.40;;;12.00;99.90;;;;;;5035940;28;20532;-76
2022/05/13 02:58:04;;;;;;;6.65;2.40;;;12.00;99.90;;;;;;5042564;28;20068;-76
2022/05/13 03:00:31;;;;;;;5.45;2.78;;;12.00;99.90;;;;;;5046636;28;20194;-76
2022/05/13 03:02:57;;;;;;;7.18;2.85;;;12.00;99.90;;;;;;5046853;28;20120;-76
2022/05/13 03:05:23;;;;;;;6.78;3.42;;;12.00;99.90;;;;;;5047886;28;20486;-76
2022/05/13 03:07:50;;;;;;;5.80;3.00;;;12.00;99.90;;;;;;5046603;28;20048;-76
2022/05/13 03:10:16;;;;;;;8.43;3.13;;;12.00;99.90;;;;;;5043473;28;20056;-76
2022/05/13 03:12:42;;;;;;;7.20;2.97;;;11.90;99.90;;;;;;5063967;28;20048;-76
2022/05/13 03:15:08;;;;;;;7.32;3.17;;;11.90;99.90;;;;;;5047927;28;20041;-76
2022/05/13 03:17:35;;;;;;;6.32;3.03;;;11.90;99.90;;;;;;5046571;28;20045;-76
2022/05/13 03:20:00;;;;;;;8.35;3.22;;;11.90;99.90;;;;;;5030894;28;20076;-76
2022/05/13 03:22:26;;;;;;;8.27;4.22;;;11.90;99.90;;;;;;5030144;28;20131;-76
2022/05/13 03:24:52;;;;;;;5.15;2.60;;;11.90;99.90;;;;;;5059169;28;20052;-76
2022/05/13 03:27:17;;;;;;;5.40;3.15;;;11.90;99.90;;;;;;5048463;28;20033;-76
2022/05/13 03:29:43;;;;;;;7.05;2.80;;;11.90;99.90;;;;;;5039048;28;20049;-76
2022/05/13 03:32:09;;;;;;;7.40;3.42;;;11.90;99.90;;;;;;5033060;28;20053;-76
2022/05/13 03:34:38;;;;;;;9.27;3.55;;;11.90;99.90;;;;;;5046440;28;20047;-76
2022/05/13 03:37:05;;;;;;;6.65;3.78;;;11.90;99.90;;;;;;5048449;28;20072;-76
2022/05/13 03:39:31;;;;;;;11.35;3.60;;;11.90;99.90;;;;;;5049691;28;20048;-76
2022/05/13 03:41:56;;;;;;;5.82;3.20;;;11.90;99.90;;;;;;5034058;28;20045;-76
2022/05/13 03:44:22;;;;;;;6.50;3.47;;;11.80;99.90;;;;;;5050240;28;20079;-76
2022/05/13 03:46:48;;;;;;;8.73;3.17;;;11.90;99.90;;;;;;5052631;28;20068;-76
2022/05/13 03:49:13;;;;;;;7.85;3.50;;;11.90;99.90;;;;;;5052114;28;20041;-76
2022/05/13 03:51:39;;;;;;;7.28;3.38;;;11.90;99.90;;;;;;5050633;28;20167;-76
2022/05/13 03:54:05;;;;;;;8.20;3.08;;;11.90;99.90;;;;;;5047387;28;20212;-76
2022/05/13 03:56:31;;;;;;;11.35;3.42;;;11.90;99.90;;;;;;5047576;28;20036;-76
2022/05/13 03:58:56;;;;;;;9.32;3.33;;;11.90;99.90;;;;;;5051206;28;20091;-76
2022/05/13 04:01:22;;;;;;;6.13;3.53;;;11.90;99.90;;;;;;5050078;28;20052;-76
2022/05/13 04:03:48;;;;;;;8.23;3.53;;;12.00;99.90;;;;;;5049858;28;20514;-76
2022/05/13 04:09:02;;;;;;;7.05;3.40;;;11.90;99.90;;;;;;5050125;28;20052;-76
2022/05/13 04:11:31;;;;;;;9.02;3.78;;;11.90;99.90;;;;;;5048630;28;20048;-76
2022/05/13 04:16:42;;;;;;;11.43;3.55;;;11.90;99.90;;;;;;5048359;28;20052;-76
2022/05/13 04:19:08;;;;;;;9.93;3.70;;;11.90;99.90;;;;;;5051317;28;20045;-76
2022/05/13 04:21:36;;;;;;;7.88;3.65;;;12.00;99.90;;;;;;5049109;28;20037;-76
2022/05/13 04:24:06;;;;;;;8.30;3.63;;;12.00;99.90;;;;;;5024305;28;20048;-76
2022/05/13 04:26:32;;;;;;;11.35;3.80;;;11.90;99.90;;;;;;5048881;28;20033;-75
2022/05/13 04:28:59;;;;;;;6.90;3.97;;;11.90;99.90;;;;;;5036777;28;20470;-76
2022/05/13 04:31:29;;;;;;;11.23;3.70;;;12.00;99.90;;;;;;5050292;28;20041;-76
2022/05/13 04:33:56;;;;;;;8.07;3.25;;;11.90;99.90;;;;;;5046191;28;20066;-74
2022/05/13 04:36:23;;;;;;;9.43;3.88;;;11.90;99.90;;;;;;5047605;28;20480;-75
2022/05/13 04:38:49;;;;;;;8.63;3.75;;;12.00;99.90;;;;;;5047430;28;20120;-75
2022/05/13 04:43:59;;;;;;;13.43;3.92;;;12.00;99.90;;;;;;5044004;28;20041;-75
2022/05/13 04:46:26;;;;;;;9.18;3.60;;;12.00;99.90;;;;;;5036297;28;20037;-74
2022/05/13 04:48:53;;;;;;;7.88;3.65;;;12.00;99.90;;;;;;5051254;28;20080;-75
2022/05/13 04:51:19;;;;;;;9.15;3.33;;;12.00;99.90;;;;;;5050634;28;20051;-75
2022/05/13 04:53:47;;;;;;;12.18;4.05;;;12.00;99.90;;;;;;5049865;28;20049;-75
2022/05/13 04:56:13;;;;;;;9.27;3.78;;;12.10;99.90;;;;;;5050487;28;20448;-74
2022/05/13 04:58:39;;;;;;;12.02;4.53;;;12.00;99.90;;;;;;5049767;28;20127;-75
2022/05/13 05:01:07;;;;;;;10.55;3.83;;;12.00;99.90;;;;;;5051276;28;20033;-75
2022/05/13 05:03:35;;;;;;;8.35;3.30;;;12.10;99.90;;;;;;5051249;28;20049;-75
2022/05/13 05:06:01;;;;;;;11.25;3.90;;;12.10;99.90;;;;;;5033913;28;20510;-75
2022/05/13 05:08:28;;;;;;;11.10;4.00;;;12.10;99.90;;;;;;5049809;28;20056;-75
2022/05/13 05:10:55;;;;;;;10.98;3.40;;;12.10;99.90;;;;;;5050405;28;20406;-75
2022/05/13 05:13:27;;;;;;;10.50;3.58;;;12.10;99.90;;;;;;5050710;28;20493;-76
2022/05/13 05:15:53;;;;;;;8.30;3.00;;;12.10;99.90;;;;;;5045820;28;20116;-75
2022/05/13 05:18:19;;;;;;;10.25;3.83;;;12.20;99.90;;;;;;5044638;28;20040;-75
2022/05/13 05:20:45;;;;;;;9.38;3.55;;;12.30;99.90;;;;;;5050678;28;20059;-76
2022/05/13 05:23:22;;;;;;;12.68;3.85;;;12.30;99.90;;;;;;5034381;28;20045;-76
2022/05/13 05:25:48;;;;;;;16.98;4.45;;;12.40;99.90;;;;;;5050119;28;20080;-76
2022/05/13 05:28:14;;;;;;;12.52;3.05;;;12.50;99.90;;;;;;5048672;28;20068;-76
2022/05/13 05:30:41;;;;;;;10.52;3.50;;;12.60;99.90;;;;;;5050561;28;20053;-75
2022/05/13 05:33:07;;;;;;;13.23;3.88;;;12.60;99.90;;;;;;5061837;28;20129;-75
2022/05/13 05:35:33;;;;;;;10.60;3.40;;;12.70;99.90;;;;;;5053302;28;20072;-75
2022/05/13 05:37:59;;;;;;;10.50;3.63;;;12.80;99.90;;;;;;5058940;28;20049;-76
2022/05/13 05:40:25;;;;;;;10.85;3.50;;;12.90;99.90;;;;;;5049136;28;20124;-75
2022/05/13 05:42:51;;;;;;;10.70;3.28;;;13.00;99.90;;;;;;5034088;28;20047;-75
2022/05/13 05:45:19;;;;;;;9.93;4.10;;;13.10;99.90;;;;;;5050400;28;20120;-75
2022/05/13 05:47:45;;;;;;;10.88;3.60;;;13.20;99.90;;;;;;5049220;28;20040;-75
2022/05/13 05:50:14;;;;;;;12.40;3.30;;;13.30;99.90;;;;;;5033291;28;20129;-76
2022/05/13 05:52:40;;;;;;;13.00;3.30;;;13.50;99.90;;;;;;5033912;28;20545;-75
2022/05/13 05:58:08;;;;;;;9.48;3.20;;;14.20;99.90;;;;;;5049202;28;20052;-75
2022/05/13 06:00:37;;;;;;;11.55;3.40;;;14.70;99.90;;;;;;5049129;28;20568;-75
2022/05/13 06:03:03;;;;;;;8.25;2.85;;;14.80;99.90;;;;;;5033568;28;20044;-75
2022/05/13 06:05:29;;;;;;;9.75;2.88;;;14.80;99.90;;;;;;5032637;28;20071;-75
2022/05/13 06:07:57;;;;;;;11.85;3.47;;;14.80;99.90;;;;;;5031299;28;20122;-75
2022/05/13 06:10:23;;;;;;;12.85;3.58;;;14.80;99.90;;;;;;5033342;28;20048;-75
2022/05/13 06:12:49;;;;;;;9.98;3.38;;;14.80;99.90;;;;;;5048632;28;20056;-76
2022/05/13 06:15:15;;;;;;;8.60;3.40;;;14.90;99.90;;;;;;5049999;28;20052;-75
2022/05/13 06:17:43;;;;;;;9.10;3.05;;;14.90;99.90;;;;;;5048990;28;20071;-76
2022/05/13 06:20:09;;;;;;;8.35;2.80;;;15.00;99.90;;;;;;5027212;28;20045;-76
2022/05/13 06:22:35;;;;;;;9.27;3.25;;;15.00;99.90;;;;;;5049907;28;20116;-76
2022/05/13 06:25:02;;;;;;;8.52;2.60;;;15.00;99.90;;;;;;5048885;28;20170;-75
2022/05/13 06:27:28;;;;;;;8.80;3.53;;;15.00;99.90;;;;;;5047046;28;20041;-76
2022/05/13 06:29:53;;;;;;;8.55;2.72;;;15.00;99.90;;;;;;5049500;28;20052;-75
2022/05/13 06:32:19;;;;;;;9.85;2.65;;;15.00;99.90;;;;;;5049100;28;20190;-75
2022/05/13 06:34:44;;;;;;;9.90;2.90;;;15.00;99.90;;;;;;5048832;28;20132;-75
2022/05/13 06:37:10;;;;;;;8.55;3.10;;;15.00;99.90;;;;;;5049282;28;20479;-75
2022/05/13 06:39:36;;;;;;;7.28;2.38;;;15.00;99.90;;;;;;5047956;28;20045;-76
2022/05/13 06:42:01;;;;;;;9.43;2.38;;;15.10;99.90;;;;;;5049373;28;20279;-76
2022/05/13 06:44:27;;;;;;;4.93;2.20;;;15.30;99.90;;;;;;5050825;28;20217;-76
2022/05/13 06:46:52;;;;;;;9.93;1.98;;;15.50;99.90;;;;;;5049365;28;20033;-76
2022/05/13 06:49:18;;;;;;;6.60;2.05;;;15.70;99.90;;;;;;5049833;28;20033;-76
2022/05/13 06:51:43;;;;;;;7.13;1.98;;;15.90;99.90;;;;;;5048944;28;20156;-76
2022/05/13 06:54:10;;;;;;;5.72;2.08;;;16.10;99.90;;;;;;5027405;28;20069;-75
2022/05/13 06:56:40;;;;;;;7.68;1.88;;;16.30;99.90;;;;;;5051309;28;20040;-76
2022/05/13 06:59:06;;;;;;;5.85;2.17;;;16.40;99.90;;;;;;5031931;28;20041;-76
2022/05/13 07:01:32;;;;;;;6.70;2.13;;;16.30;99.90;;;;;;5043658;28;20083;-77
2022/05/13 07:03:58;;;;;;;6.88;1.90;;;16.30;99.90;;;;;;5040772;28;20099;-75
2022/05/13 07:06:23;;;;;;;5.90;1.48;;;16.20;99.80;;;;;;5046555;28;20558;-75
2022/05/13 07:08:50;;;;;;;4.40;1.40;;;16.20;99.70;;;;;;5040183;28;20057;-75
2022/05/13 07:11:17;;;;;;;5.50;1.98;;;16.10;99.70;;;;;;5032039;28;20050;-74
2022/05/13 07:13:43;;;;;;;6.95;1.70;;;16.20;99.80;;;;;;5028677;28;20655;-75
2022/05/13 07:16:09;;;;;;;6.82;1.63;;;16.20;99.60;;;;;;5042451;28;20087;-75
2022/05/13 07:18:36;;;;;;;6.50;1.80;;;16.30;99.90;;;;;;5043911;28;20052;-75
2022/05/13 07:21:02;;;;;;;5.85;1.98;;;16.50;99.40;;;;;;5043348;28;20473;-75
2022/05/13 07:23:29;;;;;;;6.88;2.03;;;16.60;99.30;;;;;;5029510;28;20043;-76
2022/05/13 07:25:55;;;;;;;6.68;2.00;;;16.60;98.90;;;;;;5042783;28;20633;-76
2022/05/13 07:28:21;;;;;;;6.85;1.90;;;16.70;98.70;;;;;;5046711;28;20033;-75
2022/05/13 07:30:47;;;;;;;6.97;1.73;;;16.80;99.00;;;;;;5032620;28;20058;-76
2022/05/13 07:33:13;;;;;;;4.55;1.50;;;17.20;97.90;;;;;;5021732;28;20041;-75
2022/05/13 07:35:39;;;;;;;7.57;1.85;;;17.60;97.10;;;;;;5028876;28;20041;-75
2022/05/13 07:38:09;;;;;;;5.65;1.52;;;18.00;96.60;;;;;;5038670;28;20041;-75
2022/05/13 07:43:19;;;;;;;6.18;1.45;;;18.90;94.60;;;;;;5048987;28;20393;-76
2022/05/13 07:45:45;;;;;;;9.60;2.15;;;19.60;93.70;;;;;;5047156;28;20033;-75
2022/05/13 07:48:11;;;;;;;5.93;1.65;;;20.50;91.80;;;;;;5031398;28;20036;-75
2022/05/13 07:50:37;;;;;;;5.80;1.50;;;20.10;91.50;;;;;;5047412;28;20552;-75
2022/05/13 07:53:03;;;;;;;5.53;1.75;;;19.70;91.50;;;;;;5048487;28;20045;-75
2022/05/13 07:55:29;;;;;;;5.10;1.40;;;20.10;91.30;;;;;;5047264;28;20076;-75
2022/05/13 07:57:55;;;;;;;8.68;1.42;;;20.60;90.40;;;;;;5048535;28;20044;-75
2022/05/13 08:00:25;;;;;;;5.47;1.35;;;20.70;90.20;;;;;;5048314;28;20064;-75
2022/05/13 08:02:52;;;;;;;4.80;1.45;;;20.50;90.20;;;;;;5048680;28;20084;-75
2022/05/13 08:05:17;;;;;;;3.25;1.40;;;20.20;90.00;;;;;;5047529;28;20048;-76
2022/05/13 08:07:43;;;;;;;5.63;1.63;;;20.00;90.20;;;;;;5047341;28;20050;-75
2022/05/13 08:10:10;;;;;;;3.50;1.35;;;19.90;90.10;;;;;;5048392;28;20787;-75
2022/05/13 08:12:35;;;;;;;6.57;1.35;;;19.70;89.70;;;;;;5047582;28;20044;-75
2022/05/13 08:15:01;;;;;;;6.78;1.48;;;19.50;90.30;;;;;;5048802;28;20402;-76
2022/05/13 08:17:33;;;;;;;5.35;1.50;;;19.40;90.30;;;;;;5048433;28;20044;-75
2022/05/13 08:19:58;;;;;;;3.35;1.23;;;19.00;90.60;;;;;;5048658;28;20037;-75
2022/05/13 08:22:24;;;;;;;4.80;1.60;;;18.80;91.00;;;;;;5031502;28;20087;-75
2022/05/13 08:24:49;;;;;;;3.35;1.30;;;18.60;91.60;;;;;;5051858;28;20049;-75
2022/05/13 08:27:15;;;;;;;2.88;1.13;;;18.50;91.90;;;;;;5051195;28;20045;-75
2022/05/13 08:29:40;;;;;;;5.90;1.50;;;18.30;92.30;;;;;;5049924;28;20037;-75
2022/05/13 08:32:07;;;;;;;7.32;1.17;;;18.10;92.50;;;;;;5051508;28;20041;-75
2022/05/13 08:34:32;;;;;;;4.72;1.58;;;18.00;92.70;;;;;;5049477;28;20044;-75
2022/05/13 08:36:58;;;;;;;3.80;1.33;;;17.80;93.30;;;;;;5056314;28;20440;-75
2022/05/13 08:39:23;;;;;;;3.53;1.40;;;17.70;93.60;;;;;;5070101;28;20056;-75
2022/05/13 08:42:02;;;;;;;4.13;1.40;;;17.60;93.80;;;;;;5050232;28;20045;-76
2022/05/13 08:44:28;;;;;;;4.38;1.38;;;17.50;94.00;;;;;;5050527;28;20399;-75
2022/05/13 08:47:06;;;;;;;5.85;1.50;;;17.40;94.00;;;;;;5051211;28;20044;-75
2022/05/13 08:49:46;;;;;;;6.80;1.48;;;17.30;95.10;;;;;;5050713;28;20049;-75
2022/05/13 08:55:26;;;;;;;4.78;1.27;;;17.60;94.50;;;;;;5055766;28;20041;-75
2022/05/13 08:57:53;;;;;;;3.88;1.50;;;17.80;95.00;;;;;;5044059;28;20502;-74
2022/05/13 09:00:30;;;;;;;4.22;1.73;;;17.70;94.30;;;;;;5047283;28;20049;-74
2022/05/13 09:03:10;;;;;;;6.28;1.77;;;17.70;94.30;;;;;;5017252;28;20052;-74
2022/05/13 09:05:43;;;;;;;6.50;1.52;;;17.70;94.30;;;;;;5050198;28;20079;-74
2022/05/13 09:08:10;;;;;;;3.65;1.40;;;17.60;94.40;;;;;;5046038;28;20056;-75
2022/05/13 09:10:47;;;;;;;4.60;1.30;;;17.60;94.50;;;;;;5031003;28;20132;-74
2022/05/13 09:13:24;;;;;;;3.35;1.15;;;17.70;94.60;;;;;;5033055;28;20655;-75
2022/05/13 09:15:55;;;;;;;5.97;1.70;;;17.90;93.90;;;;;;5019448;28;20045;-75
2022/05/13 09:18:56;;;;;;;1.95;0.90;;;18.10;93.40;;;;;;5040322;28;20045;-75
2022/05/13 09:21:21;;;;;;;3.72;1.10;;;18.40;91.80;;;;;;4992062;28;20080;-75
2022/05/13 09:23:47;;;;;;;3.95;1.17;;;18.40;92.00;;;;;;5032192;28;20053;-76
2022/05/13 09:26:26;;;;;;;9.57;1.65;;;18.50;91.50;;;;;;5048511;28;20456;-76
2022/05/13 09:29:08;;;;;;;14.30;1.77;;;18.40;91.80;;;;;;5046655;28;20083;-74
2022/05/13 09:31:42;;;;;;;3.97;0.98;;;18.50;92.80;;;;;;5042618;28;20430;-75
2022/05/13 09:34:15;;;;;;;5.18;1.50;;;18.60;92.40;;;;;;5045041;28;20099;-75
2022/05/13 09:36:41;;;;;;;4.38;1.25;;;18.70;92.40;;;;;;5048942;28;20045;-74
2022/05/13 09:39:24;;;;;;;3.30;1.10;;;18.80;91.80;;;;;;5041121;28;20139;-74
2022/05/13 09:41:52;;;;;;;5.15;1.35;;;18.80;91.20;;;;;;5045072;28;20051;-73
2022/05/13 09:44:25;;;;;;;4.43;1.00;;;18.60;91.70;;;;;;5051380;28;20060;-74
2022/05/13 09:47:10;;;;;;;5.03;1.23;;;18.70;91.30;;;;;;5050093;28;20092;-75
2022/05/13 09:49:42;;;;;;;6.88;1.38;;;18.50;91.50;;;;;;5049945;28;20049;-75
2022/05/13 09:52:16;;;;;;;2.90;1.08;;;18.40;91.70;;;;;;5050084;28;20055;-74
2022/05/13 09:54:47;;;;;;;4.20;1.10;;;18.20;91.90;;;;;;5033608;28;20372;-75
2022/05/13 09:57:33;;;;;;;6.32;1.45;;;18.10;92.10;;;;;;5050275;28;20044;-75
2022/05/13 10:00:05;;;;;;;4.78;1.40;;;17.90;92.30;;;;;;5050199;28;20041;-74
2022/05/13 10:02:42;;;;;;;5.10;1.33;;;17.70;93.00;;;;;;5034645;28;20041;-74
2022/05/13 10:05:21;;;;;;;5.35;1.20;;;17.60;93.30;;;;;;5050114;28;20040;-74
2022/05/13 10:07:55;;;;;;;4.38;0.90;;;17.60;93.10;;;;;;5046011;28;20538;-74
2022/05/13 10:16:04;;;;;;;3.22;0.95;;;17.80;93.50;;;;;;5023645;28;20491;-74
2022/05/13 10:18:37;;;;;;;3.63;1.08;;;18.20;93.00;;;;;;5028890;28;20037;-74
2022/05/13 10:21:08;;;;;;;3.42;1.20;;;18.40;92.80;;;;;;5023266;28;20045;-74
2022/05/13 10:23:40;;;;;;;4.45;1.40;;;18.60;92.10;;;;;;5020103;28;20084;-74
2022/05/13 10:26:17;;;;;;;4.65;1.42;;;18.60;91.80;;;;;;5027047;28;20053;-74
2022/05/13 10:28:55;;;;;;;5.78;1.25;;;18.60;91.90;;;;;;5027761;28;20125;-74
2022/05/13 10:31:25;;;;;;;41.50;3.63;;;18.50;91.80;;;;;;5044611;28;20375;-74
2022/05/13 10:34:27;;;;;;;3.80;1.40;;;18.40;92.50;;;;;;5013037;28;20042;-74
2022/05/13 10:36:59;;;;;;;5.45;1.50;;;18.50;92.40;;;;;;5018534;28;20388;-74
2022/05/13 10:39:38;;;;;;;4.05;1.10;;;18.40;92.60;;;;;;5027982;28;20045;-74
2022/05/13 10:42:09;;;;;;;4.32;1.25;;;18.40;92.30;;;;;;5026217;28;20723;-74
2022/05/13 10:44:47;;;;;;;3.40;1.10;;;18.50;92.60;;;;;;5030450;28;20034;-74
2022/05/13 10:47:30;;;;;;;5.60;1.40;;;18.60;92.80;;;;;;5042465;28;20125;-74
2022/05/13 10:49:57;;;;;;;5.20;1.42;;;18.70;91.80;;;;;;5044944;28;20510;-74
2022/05/13 10:52:52;;;;;;;6.45;1.52;;;18.80;91.70;;;;;;5023348;28;20050;-75
2022/05/13 10:55:36;;;;;;;4.78;1.70;;;18.90;91.40;;;;;;5040270;28;20045;-74
2022/05/13 10:58:08;;;;;;;6.45;1.45;;;18.80;91.20;;;;;;5020806;28;20091;-74
2022/05/13 11:00:42;;;;;;;;;;;18.60;91.70;;;;;;5010604;28;20132;-74
2022/05/13 11:03:59;;;;;;;4.63;2.03;;;18.50;92.10;;;;;;5020130;28;20377;-74
2022/05/13 11:06:33;;;;;;;4.50;1.70;;;18.60;92.50;;;;;;4996273;28;20128;-74
2022/05/13 11:09:14;;;;;;;4.30;1.35;;;19.00;91.90;;;;;;5038524;28;20088;-74
2022/05/13 11:11:42;;;;;;;4.90;1.40;;;19.20;91.30;;;;;;5068869;28;20143;-74
2022/05/13 11:14:51;;;;;;;3.88;1.20;;;19.20;91.00;;;;;;5064664;28;20040;-74
2022/05/13 11:17:17;;;;;;;1.30;0.85;;;19.30;90.80;;;;;;5052088;28;20135;-74
2022/05/13 11:19:52;;;;;;;4.45;1.30;;;19.40;90.10;;;;;;5052174;28;20127;-74
2022/05/13 11:22:56;;;;;;;2.13;0.88;;;19.10;89.20;;;;;;5050779;28;20047;-74
2022/05/13 11:25:56;;;;;;;4.05;1.33;;;19.10;90.10;;;;;;5041600;28;20048;-74
2022/05/13 11:28:37;;;;;;;5.95;1.38;;;18.90;89.70;;;;;;5051101;28;20043;-74
2022/05/13 11:31:27;;;;;;;5.20;1.30;;;18.70;90.70;;;;;;5044958;28;20041;-74
2022/05/13 11:34:34;;;;;;;5.75;1.70;;;18.80;91.10;;;;;;5029717;28;20443;-74
2022/05/13 11:37:04;;;;;;;7.38;1.50;;;18.70;91.40;;;;;;5048034;28;20040;-74
2022/05/13 11:39:48;;;;;;;3.90;1.20;;;18.60;90.90;;;;;;5058051;28;20043;-74
2022/05/13 11:42:16;;;;;;;3.85;1.52;;;18.50;91.40;;;;;;5051300;28;20047;-74
2022/05/13 11:45:12;;;;;;;4.53;1.42;;;18.30;91.40;;;;;;5051189;28;20045;-74
2022/05/13 11:47:59;;;;;;;5.28;1.80;;;18.20;92.20;;;;;;5051391;28;20089;-74
2022/05/13 11:50:31;;;;;;;5.25;1.75;;;18.20;92.40;;;;;;5031059;28;20053;-74
2022/05/13 11:52:58;;;;;;;5.63;1.60;;;18.30;91.90;;;;;;5031148;28;20056;-74
2022/05/13 11:55:41;;;;;;;5.15;1.90;;;18.30;92.00;;;;;;5046594;28;20055;-74
2022/05/13 11:58:07;;;;;;;5.45;1.50;;;18.30;91.90;;;;;;5053083;28;20044;-74
2022/05/13 12:00:38;;;;;;;5.30;1.63;;;18.10;92.50;;;;;;5055824;28;20040;-74
2022/05/13 12:03:16;;;;;;;4.00;1.30;;;18.40;92.30;;;;;;5054550;28;20043;-74
2022/05/13 12:06:00;;;;;;;5.82;1.70;;;18.60;91.10;;;;;;5039393;28;20028;-74
2022/05/13 12:08:38;;;;;;;3.83;1.77;;;18.70;91.00;;;;;;5054207;28;20088;-74
2022/05/13 12:11:18;;;;;;;4.55;1.17;;;18.60;90.80;;;;;;5043401;28;20037;-74
2022/05/13 12:14:10;;;;;;;6.43;0.93;;;18.80;90.40;;;;;;5055560;28;20047;-74
2022/05/13 12:16:47;;;;;;;3.28;0.80;;;19.10;90.10;;;;;;5055675;28;20462;-74
2022/05/13 12:19:36;;;;;;;6.32;1.00;;;19.10;88.90;;;;;;5038930;28;20049;-74
2022/05/13 12:22:22;;;;;;;2.22;1.02;;;19.40;88.60;;;;;;5054796;28;20390;-74
2022/05/13 12:25:04;;;;;;;4.00;1.00;;;19.40;87.20;;;;;;5054872;28;20101;-74
2022/05/13 12:27:32;;;;;;;5.15;0.85;;;19.50;86.60;;;;;;5050213;28;20025;-74
2022/05/13 12:30:09;;;;;;;5.68;1.00;;;19.70;87.70;;;;;;5055048;28;20509;-74
2022/05/13 12:32:47;;;;;;;7.40;1.83;;;19.90;83.30;;;;;;5053171;28;20405;-74
2022/05/13 12:38:22;;;;;;;4.20;1.05;;;19.60;82.40;;;;;;5052487;28;20044;-74
2022/05/13 12:40:59;;;;;;;3.55;1.00;;;19.70;86.00;;;;;;5054715;28;20480;-74
2022/05/13 12:43:53;;;;;;;5.22;1.02;;;19.90;84.10;;;;;;5043770;28;20032;-74
2022/05/13 12:46:39;;;;;;;2.92;0.95;;;20.00;82.60;;;;;;5051368;28;20048;-74
2022/05/13 12:49:11;;;;;;;6.15;1.33;;;20.00;83.40;;;;;;5051661;28;20127;-74
2022/05/13 12:51:46;;;;;;;3.55;1.30;;;19.90;84.50;;;;;;5048806;28;20032;-74
2022/05/13 12:54:16;;;;;;;6.57;1.20;;;19.80;82.90;;;;;;5053968;28;20071;-74
2022/05/13 12:56:46;;;;;;;3.53;1.05;;;19.70;84.40;;;;;;5035738;28;20109;-74
2022/05/13 12:59:15;;;;;;;3.25;1.45;;;19.60;81.30;;;;;;5046389;28;20750;-74
2022/05/13 13:01:48;;;;;;;6.03;1.38;;;19.70;84.60;;;;;;5045705;28;20481;-74
2022/05/13 13:04:17;;;;;;;6.53;1.20;;;19.70;84.40;;;;;;5025922;28;20065;-74
2022/05/13 13:06:48;;;;;;;6.00;1.30;;;19.70;83.40;;;;;;5052326;28;20501;-74
2022/05/13 13:09:31;;;;;;;4.68;1.33;;;19.60;82.50;;;;;;5050390;28;20606;-74
2022/05/13 13:12:06;;;;;;;4.45;1.10;;;19.50;84.40;;;;;;5043186;28;20028;-74
2022/05/13 13:14:43;;;;;;;5.93;1.52;;;19.60;84.10;;;;;;5037336;28;20120;-74
2022/05/13 13:17:20;;;;;;;4.13;1.23;;;19.50;84.70;;;;;;5048065;28;20173;-74
2022/05/13 13:19:48;;;;;;;5.22;1.58;;;19.50;84.70;;;;;;5051410;28;20482;-74
2022/05/13 13:22:20;;;;;;;5.53;1.38;;;19.50;85.50;;;;;;5049155;28;20049;-74
2022/05/13 13:24:46;;;;;;;4.68;1.60;;;19.40;84.80;;;;;;5060597;28;20044;-75
2022/05/13 13:27:18;;;;;;;8.93;1.90;;;19.30;84.30;;;;;;5041689;28;20033;-75
2022/05/13 13:29:46;;;;;;;6.25;1.52;;;19.30;85.90;;;;;;5038916;28;20032;-75
2022/05/13 13:32:20;;;;;;;4.80;1.63;;;19.30;86.80;;;;;;5056016;28;20068;-75